createdAt,value
2023-03-19T00:02:17.570Z,22.20
2023-03-19T00:04:47.707Z,21.60
2023-03-19T00:07:16.652Z,40.30
2023-03-19T00:09:48.511Z,33.20
2023-03-19T00:12:17.685Z,38.80
2023-03-19T00:14:46.971Z,40.80
2023-03-19T00:17:16.302Z,21.50
2023-03-19T00:19:45.454Z,18.20
2023-03-19T00:22:15.917Z,17.30
2023-03-19T00:24:44.858Z,26.80
2023-03-19T00:27:13.491Z,17.60
2023-03-19T00:29:43.557Z,26.80
2023-03-19T00:32:12.537Z,31.80
2023-03-19T00:34:42.107Z,25.60
2023-03-19T00:37:12.672Z,30.00
2023-03-19T00:39:54.123Z,23.10
2023-03-19T00:42:22.904Z,34.50
2023-03-19T00:44:51.540Z,33.30
2023-03-19T00:47:20.198Z,27.20
2023-03-19T00:49:48.826Z,20.90
2023-03-19T00:52:19.327Z,30.30
2023-03-19T00:54:47.737Z,18.40
2023-03-19T00:57:16.319Z,19.80
2023-03-19T00:59:45.644Z,32.00
2023-03-19T01:02:14.384Z,47.50
2023-03-19T01:04:44.454Z,50.50
2023-03-19T01:07:16.433Z,38.90
2023-03-19T01:09:45.163Z,60.20
2023-03-19T01:12:14.453Z,59.80
2023-03-19T01:14:43.153Z,47.90
2023-03-19T01:17:12.281Z,30.50
2023-03-19T01:19:41.371Z,25.70
2023-03-19T01:22:10.538Z,18.20
2023-03-19T01:24:40.601Z,18.70
2023-03-19T01:27:09.368Z,21.10
2023-03-19T01:29:38.788Z,17.20
2023-03-19T01:32:21.873Z,21.20
2023-03-19T01:35:16.958Z,15.00
2023-03-19T01:37:48.601Z,85.70
2023-03-19T01:40:17.235Z,64.80
2023-03-19T01:43:22.392Z,69.80
2023-03-19T01:46:31.105Z,48.30
2023-03-19T01:49:46.081Z,47.60
2023-03-19T01:52:22.082Z,32.70
2023-03-19T01:55:04.815Z,29.20
2023-03-19T01:57:50.160Z,30.60
2023-03-19T02:00:45.104Z,36.80
2023-03-19T02:03:15.088Z,33.40
2023-03-19T02:06:01.370Z,24.50
2023-03-19T02:08:30.630Z,16.60
2023-03-19T02:11:00.621Z,21.20
2023-03-19T02:13:29.576Z,24.60
2023-03-19T02:15:58.742Z,12.20
2023-03-19T02:18:27.909Z,28.70
2023-03-19T02:21:06.282Z,19.80
2023-03-19T02:23:48.271Z,19.50
2023-03-19T02:26:22.027Z,21.00
2023-03-19T02:28:53.017Z,13.90
2023-03-19T02:31:26.245Z,100.10
2023-03-19T02:33:59.515Z,160.50
2023-03-19T02:36:33.170Z,130.40
2023-03-19T02:39:02.636Z,50.00
2023-03-19T02:41:32.251Z,40.20
2023-03-19T02:44:02.209Z,34.90
2023-03-19T02:46:31.218Z,12.10
2023-03-19T02:49:00.113Z,25.00
2023-03-19T02:51:28.991Z,25.40
2023-03-19T02:53:57.645Z,16.60
2023-03-19T02:56:27.545Z,30.90
2023-03-19T02:58:56.331Z,34.70
2023-03-19T03:01:24.911Z,31.70
2023-03-19T03:03:53.886Z,30.30
2023-03-19T03:06:26.736Z,31.30
2023-03-19T03:08:56.709Z,24.40
2023-03-19T03:11:26.479Z,16.10
2023-03-19T03:13:56.635Z,10.40
2023-03-19T03:16:25.772Z,34.80
2023-03-19T03:18:54.549Z,11.90
2023-03-19T03:21:25.819Z,26.80
2023-03-19T03:23:54.692Z,23.80
2023-03-19T03:26:23.345Z,30.00
2023-03-19T03:28:52.424Z,25.10
2023-03-19T03:31:21.579Z,31.30
2023-03-19T03:33:53.056Z,28.30
2023-03-19T03:36:21.744Z,19.40
2023-03-19T03:38:51.361Z,18.30
2023-03-19T03:41:20.518Z,31.50
2023-03-19T03:43:50.061Z,35.90
2023-03-19T03:46:18.746Z,35.00
2023-03-19T03:48:50.081Z,37.60
2023-03-19T03:51:19.220Z,65.30
2023-03-19T03:53:48.124Z,101.90
2023-03-19T03:56:17.074Z,79.60
2023-03-19T03:58:46.261Z,83.50
2023-03-19T04:01:17.672Z,84.90
2023-03-19T04:03:47.539Z,69.50
2023-03-19T04:06:17.758Z,64.70
2023-03-19T04:08:47.438Z,71.20
2023-03-19T04:11:16.515Z,81.00
2023-03-19T04:13:47.033Z,79.00
2023-03-19T04:16:15.850Z,90.10
2023-03-19T04:18:44.909Z,124.80
2023-03-19T04:21:14.965Z,91.00
2023-03-19T04:23:43.754Z,101.70
2023-03-19T04:26:12.403Z,160.30
2023-03-19T04:28:43.052Z,95.70
2023-03-19T04:31:12.701Z,79.30
2023-03-19T04:33:45.898Z,93.70
2023-03-19T04:36:14.469Z,68.10
2023-03-19T04:38:44.670Z,54.30
2023-03-19T04:41:17.748Z,80.20
2023-03-19T04:43:57.942Z,68.50
2023-03-19T04:46:27.024Z,50.20
2023-03-19T04:48:57.186Z,47.40
2023-03-19T04:51:26.633Z,33.30
2023-03-19T04:53:57.697Z,12.40
2023-03-19T04:56:27.988Z,13.90
2023-03-19T04:58:57.641Z,13.70
2023-03-19T05:01:26.336Z,22.40
2023-03-19T05:04:13.424Z,15.50
2023-03-19T05:06:43.388Z,16.80
2023-03-19T05:09:11.990Z,15.90
2023-03-19T05:11:41.241Z,18.60
2023-03-19T05:14:14.632Z,19.30
2023-03-19T05:17:16.859Z,22.10
2023-03-19T05:20:12.882Z,20.40
2023-03-19T05:22:47.215Z,19.90
2023-03-19T05:25:16.396Z,32.90
2023-03-19T05:27:48.470Z,29.40
2023-03-19T05:30:23.836Z,19.70
2023-03-19T05:33:13.711Z,16.90
2023-03-19T05:35:46.055Z,6.10
2023-03-19T05:38:29.174Z,17.50
2023-03-19T05:41:05.264Z,20.10
2023-03-19T05:43:41.945Z,25.40
2023-03-19T05:46:14.997Z,29.00
2023-03-19T05:48:44.262Z,30.40
2023-03-19T05:51:16.156Z,55.10
2023-03-19T05:53:47.310Z,48.90
2023-03-19T05:56:54.525Z,52.20
2023-03-19T05:59:42.890Z,33.40
2023-03-19T06:02:31.304Z,23.90
2023-03-19T06:05:30.048Z,16.30
2023-03-19T06:08:03.450Z,11.40
2023-03-19T06:10:40.000Z,26.10
2023-03-19T06:13:11.829Z,9.10
2023-03-19T06:16:07.257Z,16.10
2023-03-19T06:18:43.724Z,22.00
2023-03-19T06:21:13.576Z,12.70
2023-03-19T06:23:43.474Z,12.90
2023-03-19T06:26:17.703Z,32.30
2023-03-19T06:28:50.967Z,47.20
2023-03-19T06:31:20.263Z,42.10
2023-03-19T06:33:57.629Z,15.70
2023-03-19T06:36:31.444Z,57.10
2023-03-19T06:39:06.427Z,42.40
2023-03-19T06:41:35.071Z,31.80
2023-03-19T06:44:12.553Z,27.40
2023-03-19T06:46:42.932Z,27.70
2023-03-19T06:49:15.767Z,35.50
2023-03-19T06:51:44.999Z,36.00
2023-03-19T06:54:14.464Z,39.20
2023-03-19T06:56:43.293Z,35.10
2023-03-19T06:59:16.244Z,29.30
2023-03-19T07:01:47.054Z,37.70
2023-03-19T07:04:16.137Z,56.10
2023-03-19T07:06:53.716Z,19.30
2023-03-19T07:09:23.689Z,10.10
2023-03-19T07:11:52.285Z,14.10
2023-03-19T07:14:22.482Z,26.30
2023-03-19T07:16:51.874Z,31.80
2023-03-19T07:19:26.333Z,23.20
2023-03-19T07:21:54.881Z,38.50
2023-03-19T07:24:24.142Z,28.80
2023-03-19T07:26:54.716Z,28.30
2023-03-19T07:29:23.197Z,21.30
2023-03-19T07:31:51.997Z,15.00
2023-03-19T07:34:23.599Z,18.70
2023-03-19T07:36:53.513Z,15.70
2023-03-19T07:39:22.514Z,33.40
2023-03-19T07:41:54.340Z,63.20
2023-03-19T07:44:25.968Z,32.20
2023-03-19T07:46:58.309Z,27.80
2023-03-19T07:49:26.977Z,37.10
2023-03-19T07:51:56.551Z,34.30
2023-03-19T07:54:44.333Z,53.60
2023-03-19T07:59:59.092Z,45.50
2023-03-19T08:02:28.041Z,20.90
2023-03-19T08:04:56.951Z,23.60
2023-03-19T08:07:26.256Z,52.70
2023-03-19T08:09:55.179Z,42.60
2023-03-19T08:12:42.086Z,43.60
2023-03-19T08:15:17.427Z,43.50
2023-03-19T08:17:47.141Z,30.50
2023-03-19T08:20:16.989Z,21.00
2023-03-19T08:22:49.626Z,19.40
2023-03-19T08:25:18.395Z,17.70
2023-03-19T08:27:46.878Z,18.70
2023-03-19T08:30:15.905Z,8.80
2023-03-19T08:32:47.538Z,18.90
2023-03-19T08:35:21.509Z,20.30
2023-03-19T08:37:50.237Z,25.80
2023-03-19T08:40:19.532Z,13.40
2023-03-19T08:42:49.458Z,28.00
2023-03-19T08:45:19.433Z,101.90
2023-03-19T08:47:49.836Z,103.60
2023-03-19T08:50:22.418Z,109.10
2023-03-19T08:52:51.749Z,70.90
2023-03-19T08:55:21.216Z,35.80
2023-03-19T08:57:54.114Z,36.40
2023-03-19T09:00:24.019Z,68.30
2023-03-19T09:02:54.699Z,59.60
2023-03-19T09:05:28.139Z,34.10
2023-03-19T09:08:19.097Z,69.10
2023-03-19T09:10:51.554Z,38.20
2023-03-19T09:13:25.102Z,35.40
2023-03-19T09:15:54.966Z,41.00
2023-03-19T09:18:30.866Z,58.60
2023-03-19T09:21:01.396Z,42.50
2023-03-19T09:23:31.221Z,69.20
2023-03-19T09:26:01.589Z,26.20
2023-03-19T09:28:31.537Z,38.20
2023-03-19T09:31:07.523Z,24.50
2023-03-19T09:33:38.320Z,31.90
2023-03-19T09:36:08.073Z,56.60
2023-03-19T09:41:34.524Z,34.70
2023-03-19T09:44:07.189Z,25.60
2023-03-19T09:46:50.611Z,40.00
2023-03-19T09:49:32.964Z,49.90
2023-03-19T09:52:23.005Z,18.90
2023-03-19T09:54:53.442Z,14.60
2023-03-19T09:57:23.699Z,45.50
2023-03-19T09:59:55.099Z,27.00
2023-03-19T10:02:39.477Z,20.70
2023-03-19T10:05:22.273Z,30.70
2023-03-19T10:07:56.916Z,47.30
2023-03-19T10:10:37.440Z,26.30
2023-03-19T10:13:24.445Z,18.80
2023-03-19T10:15:56.248Z,43.80
2023-03-19T10:18:36.272Z,72.00
2023-03-19T10:21:22.484Z,57.10
2023-03-19T10:24:16.578Z,65.70
2023-03-19T10:26:47.986Z,44.90
2023-03-19T10:29:22.473Z,27.90
2023-03-19T10:32:21.308Z,39.10
2023-03-19T10:34:54.522Z,84.10
2023-03-19T10:37:27.961Z,42.30
2023-03-19T10:40:02.693Z,52.70
2023-03-19T10:42:57.322Z,45.60
2023-03-19T10:45:39.605Z,36.50
2023-03-19T10:53:16.121Z,38.30
2023-03-19T10:55:53.990Z,49.60
2023-03-19T10:58:28.374Z,57.90
2023-03-19T11:03:52.419Z,52.50
2023-03-19T11:06:42.468Z,58.60
2023-03-19T11:09:20.116Z,57.30
2023-03-19T11:11:54.686Z,108.70
2023-03-19T11:16:58.678Z,81.70
2023-03-19T11:19:42.782Z,70.90
2023-03-19T11:22:27.685Z,50.50
2023-03-19T11:25:02.991Z,39.20
2023-03-19T11:27:36.772Z,54.70
2023-03-19T11:30:18.885Z,51.20
2023-03-19T11:33:08.023Z,28.90
2023-03-19T11:35:56.368Z,31.50
2023-03-19T11:38:52.093Z,49.60
2023-03-19T11:41:33.809Z,29.60
2023-03-19T11:44:11.445Z,22.60
2023-03-19T11:47:03.329Z,47.40
2023-03-19T11:49:40.985Z,53.60
2023-03-19T11:53:03.653Z,40.40
2023-03-19T11:55:58.004Z,27.90
2023-03-19T11:58:54.944Z,100.50
2023-03-19T12:01:43.241Z,59.40
2023-03-19T12:05:08.585Z,50.60
2023-03-19T12:07:42.222Z,42.60
2023-03-19T12:10:40.603Z,81.40
2023-03-19T12:13:38.755Z,86.40
2023-03-19T12:16:45.772Z,87.40
2023-03-19T12:19:55.417Z,43.80
2023-03-19T12:23:23.965Z,31.80
2023-03-19T12:26:05.251Z,40.50
2023-03-19T12:28:40.177Z,43.40
2023-03-19T12:31:30.321Z,23.50
2023-03-19T12:34:42.259Z,77.10
2023-03-19T12:37:29.819Z,76.40
2023-03-19T12:40:08.407Z,55.80
2023-03-19T12:42:43.450Z,34.20
2023-03-19T12:45:27.520Z,45.30
2023-03-19T12:48:07.905Z,34.50
2023-03-19T12:50:40.141Z,24.50
2023-03-19T12:53:16.670Z,20.40
2023-03-19T12:55:54.152Z,40.30
2023-03-19T12:58:39.943Z,26.20
2023-03-19T13:01:28.544Z,19.10
2023-03-19T13:04:04.991Z,37.80
2023-03-19T13:06:40.485Z,52.50
2023-03-19T13:09:19.507Z,35.70
2023-03-19T13:11:55.646Z,31.70
2023-03-19T13:14:53.752Z,41.70
2023-03-19T13:17:29.875Z,76.80
2023-03-19T13:20:06.070Z,65.30
2023-03-19T13:22:37.002Z,60.70
2023-03-19T13:25:07.414Z,49.60
2023-03-19T13:27:38.565Z,37.50
2023-03-19T13:30:11.992Z,53.10
2023-03-19T13:32:50.780Z,52.60
2023-03-19T13:35:49.285Z,39.00
2023-03-19T13:38:47.657Z,40.70
2023-03-19T13:41:33.647Z,27.50
2023-03-19T13:44:35.545Z,33.70
2023-03-19T13:47:29.590Z,36.60
2023-03-19T13:50:16.880Z,36.50
2023-03-19T13:52:49.799Z,63.40
2023-03-19T13:55:27.503Z,37.30
2023-03-19T13:58:39.064Z,44.70
2023-03-19T14:01:12.588Z,35.30
2023-03-19T14:04:13.214Z,35.30
2023-03-19T14:06:52.605Z,41.70
2023-03-19T14:09:38.995Z,38.10
2023-03-19T14:12:13.715Z,37.50
2023-03-19T14:14:46.912Z,45.70
2023-03-19T14:17:21.742Z,21.50
2023-03-19T14:19:53.130Z,27.00
2023-03-19T14:25:23.613Z,46.40
2023-03-19T14:28:38.412Z,58.70
2023-03-19T14:31:25.498Z,64.40
2023-03-19T14:34:17.868Z,69.80
2023-03-19T14:37:13.134Z,104.00
2023-03-19T14:39:47.880Z,86.40
2023-03-19T14:42:40.433Z,50.60
2023-03-19T14:45:29.827Z,51.00
2023-03-19T14:48:27.461Z,40.70
2023-03-19T14:51:19.594Z,44.50
2023-03-19T14:53:54.898Z,55.10
2023-03-19T14:56:39.152Z,40.70
2023-03-19T14:59:10.328Z,42.70
2023-03-19T15:01:45.605Z,32.50
2023-03-19T15:04:17.343Z,45.80
2023-03-19T15:06:58.337Z,37.80
2023-03-19T15:09:43.576Z,57.60
2023-03-19T15:15:01.664Z,69.40
2023-03-19T15:17:39.038Z,61.10
2023-03-19T15:20:37.269Z,49.50
2023-03-19T15:23:26.236Z,76.60
2023-03-19T15:26:03.774Z,62.60
2023-03-19T15:28:53.705Z,67.20
2023-03-19T15:31:50.864Z,50.50
2023-03-19T15:34:30.610Z,48.60
2023-03-19T15:37:05.596Z,47.40
2023-03-19T15:39:42.305Z,48.50
2023-03-19T15:42:15.755Z,43.80
2023-03-19T15:45:04.889Z,26.50
2023-03-19T15:47:39.117Z,35.60
2023-03-19T15:50:15.755Z,70.80
2023-03-19T15:52:53.938Z,42.70
2023-03-19T15:55:27.116Z,29.20
2023-03-19T15:58:05.428Z,51.00
2023-03-19T16:00:43.903Z,56.00
2023-03-19T16:03:39.689Z,75.90
2023-03-19T16:06:29.592Z,52.90
2023-03-19T16:09:38.562Z,69.70
2023-03-19T16:12:43.902Z,61.70
2023-03-19T16:15:46.601Z,58.10
2023-03-19T16:18:28.201Z,46.20
2023-03-19T16:21:02.011Z,56.60
2023-03-19T16:24:14.742Z,65.20
2023-03-19T16:26:49.055Z,74.70
2023-03-19T16:29:27.886Z,79.90
2023-03-19T16:32:04.944Z,78.80
2023-03-19T16:34:34.914Z,59.30
2023-03-19T16:37:38.986Z,69.20
2023-03-19T16:40:12.181Z,89.70
2023-03-19T16:42:42.544Z,72.90
2023-03-19T16:45:18.452Z,57.70
2023-03-19T16:47:51.657Z,52.90
2023-03-19T16:50:33.886Z,54.70
2023-03-19T16:55:39.393Z,63.50
2023-03-19T17:00:40.446Z,55.30
2023-03-19T17:03:17.121Z,70.10
2023-03-19T17:05:46.588Z,82.20
2023-03-19T17:08:17.318Z,90.60
2023-03-19T17:10:49.541Z,55.80
2023-03-19T17:13:22.940Z,40.00
2023-03-19T17:15:53.110Z,50.80
2023-03-19T17:18:24.363Z,39.90
2023-03-19T17:21:29.692Z,64.10
2023-03-19T17:23:58.957Z,43.90
2023-03-19T17:26:28.674Z,98.50
2023-03-19T17:28:58.194Z,79.20
2023-03-19T17:31:32.036Z,84.60
2023-03-19T17:34:10.732Z,90.70
2023-03-19T17:36:40.059Z,119.50
2023-03-19T17:39:10.500Z,118.10
2023-03-19T17:41:44.997Z,130.20
2023-03-19T17:44:14.993Z,105.60
2023-03-19T17:46:50.461Z,111.90
2023-03-19T17:49:19.966Z,95.60
2023-03-19T17:51:49.239Z,80.40
2023-03-19T17:54:20.125Z,105.50
2023-03-19T17:56:49.373Z,78.00
2023-03-19T17:59:19.416Z,73.20
2023-03-19T18:01:48.291Z,46.30
2023-03-19T18:04:19.253Z,83.10
2023-03-19T18:06:54.694Z,87.70
2023-03-19T18:09:28.504Z,95.50
2023-03-19T18:11:57.573Z,85.90
2023-03-19T18:14:26.698Z,93.70
2023-03-19T18:16:55.481Z,88.80
2023-03-19T18:19:32.005Z,101.30
2023-03-19T18:22:00.696Z,100.70
2023-03-19T18:24:29.602Z,133.70
2023-03-19T18:26:58.145Z,104.00
2023-03-19T18:29:35.391Z,142.10
2023-03-19T18:32:12.409Z,126.20
2023-03-19T18:34:41.286Z,100.00
2023-03-19T18:37:14.820Z,72.90
2023-03-19T18:39:44.615Z,134.10
2023-03-19T18:42:16.819Z,87.40
2023-03-19T18:44:45.993Z,103.00
2023-03-19T18:47:17.600Z,86.70
2023-03-19T18:49:47.943Z,103.00
2023-03-19T18:52:19.499Z,102.30
2023-03-19T18:54:48.738Z,86.70
2023-03-19T18:57:17.767Z,88.50
2023-03-19T18:59:47.071Z,93.70
2023-03-19T19:02:29.490Z,76.80
2023-03-19T19:04:58.608Z,94.80
2023-03-19T19:07:27.465Z,94.20
2023-03-19T19:09:57.661Z,67.10
2023-03-19T19:12:27.383Z,58.90
2023-03-19T19:14:55.935Z,94.40
2023-03-19T19:17:25.621Z,64.50
2023-03-19T19:19:54.676Z,78.50
2023-03-19T19:22:23.200Z,88.10
2023-03-19T19:24:52.153Z,78.00
2023-03-19T19:27:23.062Z,111.40
2023-03-19T19:29:52.348Z,108.50
2023-03-19T19:32:29.607Z,97.90
2023-03-19T19:34:58.221Z,92.50
2023-03-19T19:37:30.284Z,86.60
2023-03-19T19:39:59.114Z,87.60
2023-03-19T19:42:28.061Z,104.10
2023-03-19T19:44:59.165Z,72.60
2023-03-19T19:47:28.119Z,58.60
2023-03-19T19:49:58.965Z,101.70
2023-03-19T19:52:29.342Z,78.10
2023-03-19T19:54:59.614Z,108.50
2023-03-19T19:57:28.611Z,90.70
2023-03-19T19:59:57.437Z,91.00
2023-03-19T20:02:28.969Z,69.40
2023-03-19T20:04:58.125Z,90.20
2023-03-19T20:07:27.326Z,86.10
2023-03-19T20:09:56.651Z,74.10
2023-03-19T20:12:28.497Z,84.00
2023-03-19T20:14:57.173Z,73.80
2023-03-19T20:17:25.771Z,69.50
2023-03-19T20:19:54.687Z,61.90
2023-03-19T20:22:23.964Z,67.10
2023-03-19T20:24:52.531Z,71.10
2023-03-19T20:27:26.722Z,60.60
2023-03-19T20:29:56.554Z,55.10
2023-03-19T20:32:25.759Z,60.10
2023-03-19T20:35:00.240Z,61.50
2023-03-19T20:37:30.790Z,73.20
2023-03-19T20:39:59.457Z,61.20
2023-03-19T20:42:28.871Z,87.50
2023-03-19T20:44:58.010Z,148.80
2023-03-19T20:47:27.314Z,113.50
2023-03-19T20:49:55.786Z,107.40
2023-03-19T20:52:26.121Z,127.20
2023-03-19T20:54:54.966Z,123.10
2023-03-19T20:57:29.335Z,108.00
2023-03-19T21:00:01.324Z,105.50
2023-03-19T21:05:07.865Z,85.70
2023-03-19T21:07:36.835Z,90.90
2023-03-19T21:10:26.601Z,80.60
2023-03-19T21:12:57.155Z,76.60
2023-03-19T21:15:34.626Z,103.20
2023-03-19T21:18:03.491Z,104.60
2023-03-19T21:20:34.592Z,95.50
2023-03-19T21:23:13.801Z,99.10
2023-03-19T21:25:46.229Z,89.60
2023-03-19T21:28:19.648Z,67.70
2023-03-19T21:30:48.922Z,61.80
2023-03-19T21:33:31.884Z,55.30
2023-03-19T21:36:01.836Z,81.00
2023-03-19T21:38:33.176Z,85.80
2023-03-19T21:41:07.407Z,68.10
2023-03-19T21:43:42.217Z,81.00
2023-03-19T21:46:24.049Z,77.20
2023-03-19T21:51:25.270Z,63.10
2023-03-19T21:53:54.565Z,67.10
2023-03-19T21:56:35.641Z,87.50
2023-03-19T21:59:08.540Z,53.10
2023-03-19T22:01:37.019Z,94.10
2023-03-19T22:04:05.598Z,99.10
2023-03-19T22:06:34.283Z,95.10
2023-03-19T22:09:04.350Z,101.50
2023-03-19T22:11:35.117Z,109.40
2023-03-19T22:14:07.695Z,76.50
2023-03-19T22:16:42.742Z,89.40
2023-03-19T22:19:15.362Z,85.10
2023-03-19T22:21:44.072Z,98.70
2023-03-19T22:24:12.827Z,85.00
2023-03-19T22:26:43.265Z,90.40
2023-03-19T22:29:20.128Z,112.90
2023-03-19T22:31:50.586Z,91.20
2023-03-19T22:34:22.393Z,94.20
2023-03-19T22:36:51.623Z,109.80
2023-03-19T22:39:20.287Z,98.20
2023-03-19T22:41:49.040Z,104.20
2023-03-19T22:44:24.617Z,121.90
2023-03-19T22:46:53.693Z,95.00
2023-03-19T22:49:22.424Z,131.70
2023-03-19T22:51:51.501Z,111.20
2023-03-19T22:54:22.141Z,120.20
2023-03-19T22:56:51.019Z,97.30
2023-03-19T22:59:23.276Z,93.70
2023-03-19T23:01:52.639Z,109.20
2023-03-19T23:04:31.868Z,100.80
2023-03-19T23:07:00.992Z,92.80
2023-03-19T23:09:31.940Z,95.60
2023-03-19T23:12:01.239Z,84.90
2023-03-19T23:14:31.506Z,73.60
2023-03-19T23:17:03.848Z,114.90
2023-03-19T23:19:37.214Z,102.20
2023-03-19T23:22:07.666Z,143.30
2023-03-19T23:24:36.402Z,83.40
2023-03-19T23:27:20.359Z,84.10
2023-03-19T23:29:49.659Z,107.90
2023-03-19T23:32:20.107Z,87.60
2023-03-19T23:34:59.442Z,88.80
2023-03-19T23:37:29.455Z,82.80
2023-03-19T23:40:01.892Z,78.40
2023-03-19T23:42:32.081Z,78.80
2023-03-19T23:45:04.915Z,67.50
2023-03-19T23:47:34.349Z,89.70
2023-03-19T23:50:03.206Z,77.40
2023-03-19T23:52:33.505Z,73.30
2023-03-19T23:55:02.224Z,63.20
2023-03-19T23:57:31.029Z,101.00
2023-03-19T23:59:59.670Z,100.90
